Flight Track Log - Related Links

Times and Time Zones

All times are in EDT time to prevent confusion due to time zone crossing. See the AAR8732 flight status page for this flight to view local times or setup timezone preferences in your user account.

Time Position Orientation Groundspeed Altitude Reporting Facility
EDT Latitude Longitude Course Direction KTS MPH feet Rate Location/Type
Wed 07:57:00 PM 35.1428 127.5263 346° North  Level Estimated
Wed 07:58:00 PM 35.2185 127.5039 346° North  Level Estimated
Wed 07:59:00 PM 35.2943 127.4815 346° North  Level Estimated
Wed 08:00:00 PM 35.3700 127.4590 346° North  Level Estimated
Wed 08:01:00 PM 35.4457 127.4365 346° North  Level Estimated
Wed 08:02:00 PM 35.5214 127.4140 346° North  Level Estimated
Wed 08:03:00 PM 35.5971 127.3914 346° North  Level Estimated
Wed 08:04:00 PM 35.6729 127.3688 346° North  Level Estimated
Wed 08:05:00 PM 35.7486 127.3461 346° North  Level Estimated
Wed 08:06:00 PM 35.8243 127.3234 346° North  Level Estimated
Wed 08:07:00 PM 35.8999 127.3007 346° North  Level Estimated
Wed 08:08:00 PM 35.9757 127.2779 346° North  Level Estimated
Wed 08:09:00 PM 36.0513 127.2550 346° North  Level Estimated
Wed 08:10:00 PM 36.1270 127.2322 346° North  Level Estimated
Wed 08:11:00 PM 36.2027 127.2092 346° North  Level Estimated
Wed 08:12:00 PM 36.2784 127.1863 346° North  Level Estimated
Wed 08:13:00 PM 36.3540 127.1632 346° North  Level Estimated
Wed 08:14:00 PM 36.4297 127.1402 346° North  Level Estimated
Wed 08:15:00 PM 36.5054 127.1171 346° North  Level Estimated
Wed 08:16:00 PM 36.5810 127.0939 346° North  Level Estimated
Wed 08:17:00 PM 36.6567 127.0707 346° North  Level Estimated
Wed 08:18:00 PM 36.7323 127.0475 346° North  Level Estimated
Wed 08:19:00 PM 36.8080 127.0242 346° North  Level Estimated
Wed 08:20:00 PM 36.8836 127.0009 346° North  Level Estimated
Wed 08:21:00 PM 36.9593 126.9775 346° North  Level Estimated
Wed 08:22:00 PM 37.0349 126.9540 346° North  Level Estimated
Wed 08:23:00 PM 37.1105 126.9306 346° North  Level Estimated
Wed 08:24:00 PM 37.1861 126.9071 346° North  Level Estimated
Wed 08:25:00 PM 37.2617 126.8835 346° North  Level Estimated
Wed 08:25:50 PM 37.4195 126.9674 317° Northwest 164 189 3,600  Level FlightAware ADS-B
Wed 08:26:05 PM 37.4288 126.9559 316° Northwest 165 190 3,300 -1,200 Descending FlightAware ADS-B
Wed 08:26:20 PM 37.4373 126.9453 315° West 168 193 3,000 -1,000 Descending FlightAware ADS-B
Wed 08:26:35 PM 37.4455 126.9350 315° West 168 193 2,800 -800 Descending FlightAware ADS-B
Wed 08:26:50 PM 37.4531 126.9254 315° West 166 191 2,600 -800 Descending FlightAware ADS-B
Wed 08:27:05 PM 37.4619 126.9144 316° Northwest 164 189 2,400 -800 Descending FlightAware ADS-B
Wed 08:27:20 PM 37.4691 126.9055 316° Northwest 162 186 2,200 -800 Descending FlightAware ADS-B
Wed 08:27:35 PM 37.4774 126.8952 316° Northwest 153 176 2,000 -774 Descending FlightAware ADS-B
Wed 08:27:51 PM 37.4851 126.8856 315° West 145 167 1,800 -800 Descending FlightAware ADS-B
Wed 08:28:05 PM 37.4917 126.8773 315° West 130 150 1,600 -889 Descending FlightAware ADS-B
Wed 08:28:18 PM 37.4964 126.8715 315° West 127 146 1,400 -686 Descending FlightAware ADS-B
Wed 08:28:40 PM 37.5060 126.8595 315° West 127 146 1,200 -667 Descending FlightAware ADS-B
Wed 08:28:54 PM 37.5119 126.8520 315° West 130 150 1,000 -800 Descending FlightAware ADS-B
Wed 08:29:10 PM 37.5188 126.8434 315° West 125 144 800 -706 Descending FlightAware ADS-B
Wed 08:29:28 PM 37.5255 126.8350 316° Northwest 127 146 600 -529 Descending FlightAware ADS-B
Wed 08:29:44 PM 37.5325 126.8262 316° Northwest 127 146 500 -375 Descending FlightAware ADS-B
Wed 08:32:00 PM 37.5583 126.7906 312° West  Level Estimated
Wed 08:33:00 PM 37.5583 126.7906 North  Level Estimated
Wed 08:34:00 PM 37.5583 126.7906 North  Level Estimated
Wed 08:35:00 PM 37.5583 126.7906 North  Level Estimated
Wed 08:36:00 PM 37.5583 126.7906 North  Level Estimated
Wed 08:37:00 PM 37.5583 126.7906 North  Level Estimated
Wed 08:38:00 PM 37.5583 126.7906 North  Level Estimated
Wed 08:39:00 PM 37.5583 126.7906 North  Level Estimated
Wed 08:40:00 PM 37.5583 126.7906 North  Level Estimated
Wed 08:41:00 PM 37.5583 126.7906 North  Level Estimated
Wed 08:42:00 PM 37.5583 126.7906 North  Level Estimated
Wed 08:43:00 PM 37.5583 126.7906 North  Level Estimated
Wed 08:44:00 PM 37.5583 126.7906 North  Level Estimated
Wed 08:45:00 PM 37.5583 126.7906 North  Level Estimated

Login

Don't have an account? Register now (free) for customized features, flight alerts, and more!